Latest Weather Observations for Jabiru

IDD60801

Issued at 2:05 pm CST Wednesday 3 September 2014 (issued every 30 minutes, with the page automatically refreshed every 10 minutes)

About weather observations | Map of weather stations | Latest weather observations for NT | Other Formats
Station Details ID: 014198 Name: JABIRU AIRPORT Lat: -12.66 Lon: 132.89 Height: 26.5 m
Data from the previous 72 hours. | See also: Recent months at Jabiru
Date/Time
CST
Temp
°C
App
Temp
°C
Dew
Point
Rel
Hum
%
Delta-T
°C
Wind Press
QNH
hPa
Press
MSL
hPa
Rain
since 9 am
mm
Dir
 
Spd
km/h
Gust
km/h
Spd
kts
Gust
kts
03/02:00pm 33.9 29.1 0.5 12 16.5 ESE 15 24 8 13 1013.1 1012.9 0.0
03/01:30pm 33.5 28.5 1.3 13 16.1 ESE 17 24 9 13 1013.7 1013.5 0.0
03/01:00pm 33.3 27.7 1.2 13 16.0 ESE 20 32 11 17 1014.1 1013.9 0.0
03/12:30pm 33.8 28.3 0.5 12 16.5 ESE 19 33 10 18 1014.4 1014.2 0.0
03/12:00pm 33.1 27.7 1.0 13 15.9 ESE 19 30 10 16 1014.9 1014.7 0.0
03/11:30am 32.7 26.6 2.7 15 15.3 ESE 24 35 13 19 1015.4 1015.2 0.0
03/11:00am 32.1 28.6 5.6 19 14.1 ENE 13 28 7 15 1015.8 1015.6 0.0
03/10:30am 29.7 27.2 8.2 26 11.8 ESE 11 15 6 8 1016.3 1016.1 0.0
03/10:00am 28.4 27.7 8.7 29 10.8 ENE 2 11 1 6 1016.7 1016.5 0.0
03/09:30am 26.0 26.3 12.1 42 8.0 WNW 2 7 1 4 1016.8 1016.6 0.0
03/09:00am 23.9 24.4 12.8 49 6.4 NW 2 7 1 4 1016.7 1016.5 0.0
03/08:30am 21.4 22.0 13.1 59 4.7 W 2 6 1 3 1016.5 1016.3 0.0
03/08:00am 19.4 19.5 12.7 65 3.8 W 4 9 2 5 1016.2 1016.0 0.0
03/07:30am 17.3 17.9 11.8 70 3.0 CALM 0 0 0 0 1016.0 1015.8 0.0
03/07:00am 15.2 15.6 11.4 78 2.0 CALM 0 0 0 0 1015.6 1015.4 0.0
03/06:30am 15.9 15.2 11.5 75 2.4 N 6 7 3 4 1015.4 1015.2 0.0
03/06:00am 16.4 17.0 11.8 74 2.5 NNE 0 7 0 4 1015.0 1014.8 0.0
03/05:30am 16.3 15.7 11.7 74 2.5 N 6 7 3 4 1014.5 1014.3 0.0
03/05:00am 16.5 15.7 11.6 73 2.7 N 7 9 4 5 1014.3 1014.1 0.0
03/04:30am 16.7 17.1 11.2 70 3.0 CALM 0 0 0 0 1014.3 1014.1 0.0
03/04:00am 18.5 17.4 12.0 66 3.6 SSW 9 11 5 6 1014.0 1013.8 0.0
03/03:30am 18.0 17.2 11.8 67 3.4 S 7 11 4 6 1014.1 1013.9 0.0
03/03:00am 17.9 16.7 11.5 66 3.5 SSW 9 13 5 7 1014.3 1014.1 0.0
03/02:30am 19.2 18.6 11.7 62 4.1 S 6 7 3 4 1014.2 1014.0 0.0
03/02:00am 19.2 18.4 11.7 62 4.1 SSW 7 9 4 5 1014.4 1014.2 0.0
03/01:30am 20.4 19.9 12.1 59 4.6 SSW 6 7 3 4 1014.7 1014.5 0.0
03/01:00am 21.1 20.6 12.0 56 5.1 E 6 7 3 4 1015.1 1014.9 0.0
03/12:30am 22.2 21.7 12.2 53 5.6 E 6 7 3 4 1015.4 1015.2 0.0
03/12:00am 23.3 22.9 12.3 50 6.3 E 6 7 3 4 1015.6 1015.4 0.0
 
Date/Time
CST
Temp
°C
App
Temp
°C
Dew
Point
Rel
Hum
%
Delta-T
°C
Wind Press
QNH
hPa
Press
MSL
hPa
Rain
since 9 am
mm
Dir
 
Spd
km/h
Gust
km/h
Spd
kts
Gust
kts
02/11:30pm 23.7 23.6 12.0 48 6.6 N 4 7 2 4 1015.6 1015.4 0.0
02/11:00pm 24.5 23.8 12.1 46 7.1 NE 7 9 4 5 1015.6 1015.4 0.0
02/10:30pm 24.5 23.3 11.5 44 7.3 NE 9 11 5 6 1015.6 1015.4 0.0
02/10:00pm 24.5 23.4 10.0 40 8.0 NE 6 7 3 4 1015.5 1015.3 0.0
02/09:30pm 25.5 24.6 10.5 39 8.4 NNE 6 7 3 4 1015.1 1014.9 0.0
02/09:00pm 26.3 25.4 10.5 37 8.8 NNW 6 11 3 6 1014.7 1014.5 0.0
02/08:30pm 27.2 25.4 10.8 36 9.3 NNW 11 17 6 9 1014.3 1014.1 0.0
02/08:00pm 27.8 25.6 10.9 35 9.6 NW 13 19 7 10 1013.7 1013.5 0.0
02/07:30pm 28.5 25.9 6.0 24 11.8 N 9 20 5 11 1013.2 1013.0 0.0
02/07:00pm 30.4 27.6 3.4 18 13.7 ESE 7 15 4 8 1012.1 1011.9 0.0
02/06:30pm 31.9 28.5 2.1 15 15.0 E 9 13 5 7 1011.7 1011.5 0.0
02/06:00pm 33.5 29.4 2.4 14 15.8 E 13 17 7 9 1011.5 1011.3 0.0
02/05:30pm 34.6 31.0 3.2 14 16.3 E 11 19 6 10 1011.2 1011.0 0.0
02/05:00pm 35.0 30.4 3.5 14 16.5 E 17 28 9 15 1011.1 1010.9 0.0
02/04:30pm 34.6 30.1 4.2 15 16.1 E 17 26 9 14 1011.0 1010.8 0.0
02/04:00pm 34.9 30.3 3.5 14 16.4 E 17 22 9 12 1010.9 1010.7 0.0
02/03:30pm 35.4 30.1 1.7 12 17.2 E 19 26 10 14 1011.1 1010.9 0.0
02/03:00pm 35.1 30.1 1.5 12 17.0 SE 17 32 9 17 1011.2 1011.0 0.0
02/02:30pm 34.6 30.1 2.2 13 16.6 ESE 15 22 8 12 1011.6 1011.4 0.0
02/02:00pm 34.4 29.9 4.0 15 16.0 ESE 17 32 9 17 1012.1 1011.9 0.0
02/01:30pm 34.2 29.2 4.8 16 15.6 ESE 20 39 11 21 1012.6 1012.4 0.0
02/01:00pm 34.0 28.8 3.7 15 15.8 ENE 20 30 11 16 1012.8 1012.6 0.0
02/12:30pm 32.8 27.6 3.7 16 15.1 E 20 30 11 16 1013.4 1013.2 0.0
02/12:00pm 32.9 29.0 7.0 20 14.2 E 17 37 9 20 1013.9 1013.7 0.0
02/11:30am 31.9 29.9 8.8 24 12.9 E 9 17 5 9 1014.5 1014.3 0.0
02/11:00am 31.1 29.0 9.9 27 12.0 SE 11 17 6 9 1015.0 1014.8 0.0
02/10:30am 29.0 27.8 10.2 31 10.6 E 7 15 4 8 1015.5 1015.3 0.0
02/10:00am 27.5 26.6 10.7 35 9.5 SE 6 13 3 7 1016.0 1015.8 0.0
02/09:30am 26.0 24.9 9.8 36 8.9 SE 6 11 3 6 1016.0 1015.8 0.0
02/09:00am 23.6 23.4 13.5 53 5.9 SSW 7 9 4 5 1016.0 1015.8 0.0
02/08:30am 21.4 22.2 13.6 61 4.5 SSW 2 9 1 5 1015.9 1015.7 0.0
02/08:00am 19.2 20.0 12.7 66 3.7 CALM 0 0 0 0 1015.8 1015.6 0.0
02/07:30am 16.8 17.5 12.3 75 2.5 CALM 0 0 0 0 1015.5 1015.3 0.0
02/07:00am 15.7 16.2 11.7 77 2.2 CALM 0 0 0 0 1015.3 1015.1 0.0
02/06:30am 15.4 15.8 11.4 77 2.1 CALM 0 6 0 3 1015.1 1014.9 0.0
02/06:00am 15.8 16.4 12.0 78 2.1 CALM 0 0 0 0 1014.9 1014.7 0.0
02/05:30am 16.6 17.1 11.7 73 2.7 CALM 0 6 0 3 1014.6 1014.4 0.0
02/05:00am 17.0 17.5 11.7 71 2.9 CALM 0 0 0 0 1014.5 1014.3 0.0
02/04:30am 17.9 18.5 11.9 68 3.3 CALM 0 0 0 0 1014.5 1014.3 0.0
02/04:00am 17.6 18.3 12.1 70 3.0 CALM 0 0 0 0 1014.5 1014.3 0.0
02/03:30am 17.6 18.2 11.8 69 3.2 CALM 0 0 0 0 1014.4 1014.2 0.0
02/03:00am 18.3 18.6 12.1 67 3.4 SSW 2 7 1 4 1014.6 1014.4 0.0
02/02:30am 19.0 19.2 12.0 64 3.9 WSW 2 7 1 4 1014.5 1014.3 0.0
02/02:00am 19.1 18.4 12.1 64 3.9 SW 7 11 4 6 1014.6 1014.4 0.0
02/01:30am 20.3 20.6 12.3 60 4.5 SW 2 6 1 3 1014.9 1014.7 0.0
02/01:00am 21.0 21.0 12.4 58 4.9 S 4 9 2 5 1015.1 1014.9 0.0
02/12:30am 20.1 20.2 12.6 62 4.2 SSE 4 11 2 6 1015.2 1015.0 0.0
02/12:00am 21.2 22.3 13.4 61 4.5 CALM 0 0 0 0 1015.1 1014.9 0.0
 
Date/Time
CST
Temp
°C
App
Temp
°C
Dew
Point
Rel
Hum
%
Delta-T
°C
Wind Press
QNH
hPa
Press
MSL
hPa
Rain
since 9 am
mm
Dir
 
Spd
km/h
Gust
km/h
Spd
kts
Gust
kts
01/11:30pm 21.6 22.0 13.8 61 4.5 ESE 4 6 2 3 1015.0 1014.8 0.0
01/11:00pm 22.3 23.3 13.1 56 5.3 CALM 0 0 0 0 1014.8 1014.6 0.0
01/10:30pm 23.7 23.1 13.6 53 5.9 NNW 9 13 5 7 1014.6 1014.4 0.0
01/10:00pm 24.3 23.4 13.8 52 6.2 NNW 11 17 6 9 1014.2 1014.0 0.0
01/09:30pm 25.2 23.4 11.0 41 8.0 NNW 11 17 6 9 1013.9 1013.7 0.0
01/09:00pm 26.6 24.7 6.6 28 10.5 E 6 7 3 4 1013.1 1012.9 0.0
01/08:30pm 26.6 24.3 5.5 26 10.9 ESE 7 9 4 5 1012.7 1012.5 0.0
01/08:00pm 27.6 25.2 5.2 24 11.5 E 7 9 4 5 1012.2 1012.0 0.0
01/07:30pm 28.4 25.8 4.0 21 12.4 E 7 9 4 5 1011.6 1011.4 0.0
01/07:00pm 29.3 26.7 4.0 20 12.9 ESE 7 9 4 5 1011.2 1011.0 0.0
01/06:30pm 31.3 28.7 4.2 18 14.0 E 7 9 4 5 1010.9 1010.7 0.0
01/06:00pm 33.0 29.8 2.9 15 15.4 ESE 9 13 5 7 1010.7 1010.5 0.0
01/05:30pm 33.6 29.4 1.4 13 16.2 E 13 20 7 11 1010.5 1010.3 0.0
01/05:00pm 34.2 29.5 0.8 12 16.6 E 15 20 8 11 1010.4 1010.2 0.0
01/04:30pm 34.0 29.8 1.7 13 16.3 ESE 13 22 7 12 1010.2 1010.0 0.0
01/04:00pm 34.1 29.7 2.8 14 16.1 SSE 15 24 8 13 1010.2 1010.0 0.0
01/03:30pm 34.7 30.8 3.3 14 16.4 SE 13 20 7 11 1010.2 1010.0 0.0
01/03:00pm 34.6 30.7 3.2 14 16.3 ESE 13 24 7 13 1010.6 1010.4 0.0
01/02:30pm 34.3 30.1 4.0 15 15.9 SE 15 24 8 13 1011.0 1010.8 0.0
01/02:00pm 34.2 29.3 1.9 13 16.4 E 17 30 9 16 1011.5 1011.3 0.0
01/01:30pm 34.0 29.2 2.8 14 16.0 ESE 17 32 9 17 1012.1 1011.9 0.0
01/01:00pm 32.3 28.3 5.0 18 14.4 SSE 15 26 8 14 1012.7 1012.5 0.0
01/12:30pm 32.2 27.1 4.1 17 14.6 ESE 20 30 11 16 1013.4 1013.2 0.0
01/12:00pm 31.5 28.2 7.9 23 13.0 ESE 15 24 8 13 1014.0 1013.8 0.0
01/11:30am 30.4 29.2 10.4 29 11.4 SE 7 13 4 7 1014.5 1014.3 0.0
01/11:00am 29.0 28.4 12.4 36 9.7 SSE 7 13 4 7 1015.1 1014.9 0.0
01/10:30am 27.9 26.8 11.9 37 9.2 E 9 15 5 8 1015.7 1015.5 0.0
01/10:00am 26.8 26.6 13.5 44 7.8 E 7 11 4 6 1016.1 1015.9 0.0
01/09:30am 25.1 25.3 14.8 52 6.2 SSW 7 9 4 5 1016.1 1015.9 0.0
01/09:00am 23.7 24.6 16.2 63 4.6 WSW 6 9 3 5 1016.2 1016.0 0.0
01/08:30am 21.5 22.2 16.0 71 3.3 S 7 9 4 5 1016.0 1015.8 0.0
01/08:00am 19.5 20.4 14.1 71 3.1 S 2 7 1 4 1015.8 1015.6 0.0
01/07:30am 17.8 17.8 13.5 76 2.4 S 6 7 3 4 1015.6 1015.4 0.0
01/07:00am 16.7 16.3 13.0 79 2.1 SSW 7 9 4 5 1015.3 1015.1 0.0
01/06:30am 16.7 17.0 13.4 81 1.9 SSE 4 9 2 5 1014.9 1014.7 0.0
01/06:00am 17.1 16.8 13.2 78 2.2 S 7 9 4 5 1014.4 1014.2 0.0
01/05:30am 16.8 17.6 12.5 76 2.4 CALM 0 0 0 0 1014.2 1014.0 0.0
01/05:00am 18.2 19.3 13.5 74 2.7 CALM 0 0 0 0 1013.8 1013.6 0.0
01/04:30am 18.3 18.5 13.0 71 3.0 SSW 4 9 2 5 1013.6 1013.4 0.0
01/04:00am 18.6 19.1 12.8 69 3.3 S 2 6 1 3 1013.6 1013.4 0.0
01/03:30am 18.2 18.2 12.4 69 3.2 WSW 4 9 2 5 1013.6 1013.4 0.0
01/03:00am 19.6 19.4 13.1 66 3.7 NW 6 7 3 4 1013.6 1013.4 0.0
01/02:30am 19.9 19.7 13.1 65 3.9 WNW 6 9 3 5 1013.8 1013.6 0.0
01/02:00am 20.1 21.0 12.8 63 4.1 CALM 0 0 0 0 1013.9 1013.7 0.0
01/01:30am 20.0 20.8 12.5 62 4.2 CALM 0 0 0 0 1013.8 1013.6 0.0
01/01:00am 20.2 20.8 11.9 59 4.6 CALM 0 0 0 0 1013.9 1013.7 0.0
01/12:30am 21.6 22.4 12.7 57 5.1 CALM 0 0 0 0 1014.0 1013.8 0.0
01/12:00am 20.7 20.9 11.9 57 4.9 S 2 9 1 5 1014.0 1013.8 0.0
 
Date/Time
CST
Temp
°C
App
Temp
°C
Dew
Point
Rel
Hum
%
Delta-T
°C
Wind Press
QNH
hPa
Press
MSL
hPa
Rain
since 9 am
mm
Dir
 
Spd
km/h
Gust
km/h
Spd
kts
Gust
kts
31/11:30pm 21.7 21.2 12.0 54 5.5 WSW 6 7 3 4 1013.6 1013.4 0.0
31/11:00pm 23.0 23.0 12.3 51 6.1 NW 4 7 2 4 1013.3 1013.1 0.0
31/10:30pm 23.6 23.2 12.3 49 6.4 N 6 7 3 4 1013.2 1013.0 0.0
31/10:00pm 24.2 22.8 12.2 47 6.9 NNW 11 15 6 8 1013.0 1012.8 0.0
31/09:30pm 24.8 22.9 11.7 44 7.4 NNW 13 19 7 10 1012.7 1012.5 0.0
31/09:00pm 25.5 23.6 10.5 39 8.4 NNW 11 17 6 9 1012.4 1012.2 0.0
31/08:30pm 25.8 23.1 3.7 24 11.0 ENE 7 19 4 10 1011.9 1011.7 0.0
31/08:00pm 26.6 23.8 3.2 22 11.6 ESE 7 9 4 5 1011.5 1011.3 0.0
31/07:30pm 27.8 24.8 2.1 19 12.6 ESE 7 9 4 5 1010.9 1010.7 0.0
31/07:00pm 28.6 25.6 2.0 18 13.0 E 7 7 4 4 1010.4 1010.2 0.0
31/06:30pm 30.3 26.9 1.7 16 14.1 E 9 11 5 6 1010.1 1009.9 0.0
31/06:00pm 32.0 28.3 0.2 13 15.5 E 9 17 5 9 1009.9 1009.7 0.0
31/05:30pm 32.9 28.8 -0.2 12 16.1 ESE 11 17 6 9 1009.8 1009.6 0.0
31/05:00pm 33.6 28.8 -2.2 10 16.9 E 13 20 7 11 1009.7 1009.5 0.0
31/04:30pm 33.4 28.8 -1.0 11 16.6 ESE 13 24 7 13 1009.7 1009.5 0.0
31/04:00pm 33.7 29.1 -0.8 11 16.7 ESE 13 20 7 11 1009.7 1009.5 0.0
31/03:30pm 33.5 28.1 -1.0 11 16.6 ESE 17 24 9 13 1009.8 1009.6 0.0
31/03:00pm 34.1 30.0 -0.5 11 16.9 SE 11 20 6 11 1010.0 1009.8 0.0
31/02:30pm 33.7 29.9 -0.8 11 16.7 NNE 9 19 5 10 1010.3 1010.1 0.0

Other Formats:

Comma delimited format used in spreadsheet applications
http://www.bom.gov.au/fwo/IDD60801/IDD60801.94137.axf

JavaScript Object Notation format (JSON) in row-major order
http://www.bom.gov.au/fwo/IDD60801/IDD60801.94137.json